Time;durP1;ratioP1;P1;durP2;ratioP2;P2;SDS_P1;SDS_P2;PMS_P1;PMS_P2;Temp;Humidity;BMP_temperature;BMP_pressure;BME280_temperature;BME280_humidity;BME280_pressure;Samples;Min_cycle;Max_cycle;Signal;HPM_P1;HPM_P2
2021/10/28 00:13:59;;;;;;;7.10;5.70;;;;;;;10.03;82.76;101374.69;5071102;28;20820;-81
2021/10/28 00:16:26;;;;;;;10.20;6.50;;;;;;;10.01;82.62;101373.94;5070855;28;20217;-79
2021/10/28 00:19:00;;;;;;;8.90;6.43;;;;;;;9.99;82.98;101378.47;5057491;28;20633;-80
2021/10/28 00:21:29;;;;;;;8.97;6.10;;;;;;;9.98;82.89;101376.75;5056990;28;20210;-79
2021/10/28 00:24:00;;;;;;;10.50;6.20;;;;;;;9.97;83.38;101376.81;5056470;28;20225;-80
2021/10/28 00:26:26;;;;;;;9.37;7.07;;;;;;;9.95;83.20;101382.22;5058541;28;20209;-80
2021/10/28 00:28:58;;;;;;;8.13;6.60;;;;;;;9.96;83.64;101377.75;5076262;28;20220;-79
2021/10/28 00:31:25;;;;;;;7.43;6.27;;;;;;;9.94;83.19;101384.94;5060765;28;20202;-79
2021/10/28 00:33:51;;;;;;;8.63;6.10;;;;;;;9.89;83.31;101378.97;5076469;28;20738;-79
2021/10/28 00:36:18;;;;;;;9.70;6.20;;;;;;;9.84;82.96;101381.88;5075955;28;20655;-81
2021/10/28 00:38:48;;;;;;;8.27;6.23;;;;;;;9.81;82.90;101378.50;5060861;28;20231;-80
2021/10/28 00:41:15;;;;;;;7.53;5.93;;;;;;;9.77;83.23;101382.25;5074430;28;20203;-81
2021/10/28 00:43:49;;;;;;;8.70;6.50;;;;;;;9.73;83.25;101370.88;5068630;28;20726;-79
2021/10/28 00:46:17;;;;;;;9.50;6.43;;;;;;;9.70;83.62;101379.00;5068381;28;20212;-79
2021/10/28 00:48:46;;;;;;;6.90;6.20;;;;;;;9.65;83.28;101371.28;5074812;28;20597;-80
2021/10/28 00:51:13;;;;;;;9.77;6.57;;;;;;;9.61;83.37;101369.69;5073402;28;20575;-80
2021/10/28 00:53:41;;;;;;;7.47;6.03;;;;;;;9.60;83.86;101375.06;5057774;28;20703;-79
2021/10/28 00:56:09;;;;;;;7.23;5.47;;;;;;;9.57;83.09;101380.53;5057823;28;20753;-80
2021/10/28 00:58:36;;;;;;;9.03;6.17;;;;;;;9.56;83.94;101376.16;5070024;28;20260;-79
2021/10/28 01:01:04;;;;;;;9.27;6.23;;;;;;;9.52;83.09;101380.75;5066374;28;20208;-79
2021/10/28 01:03:32;;;;;;;7.30;5.77;;;;;;;9.50;83.10;101377.28;5057513;28;20225;-79
2021/10/28 01:05:59;;;;;;;10.50;6.97;;;;;;;9.48;83.19;101376.53;5056297;28;20220;-80
2021/10/28 01:08:26;;;;;;;9.30;6.43;;;;;;;9.44;83.80;101382.91;5072454;28;20322;-79
2021/10/28 01:10:55;;;;;;;10.17;6.40;;;;;;;9.40;83.38;101374.22;5073265;28;20228;-80
2021/10/28 01:13:24;;;;;;;10.33;7.00;;;;;;;9.40;83.75;101386.66;5064787;28;20224;-80
2021/10/28 01:15:54;;;;;;;8.57;6.87;;;;;;;9.38;84.00;101378.75;5073713;28;20209;-80
2021/10/28 01:18:21;;;;;;;7.83;7.00;;;;;;;9.36;83.81;101377.09;5087245;28;20578;-80
2021/10/28 01:20:51;;;;;;;8.67;6.90;;;;;;;9.35;84.31;101373.56;5071229;28;20235;-80
2021/10/28 01:23:20;;;;;;;9.57;8.03;;;;;;;9.34;84.25;101382.47;5066484;28;20223;-80
2021/10/28 01:25:51;;;;;;;9.10;7.13;;;;;;;9.32;84.28;101383.47;5091956;28;20277;-79
2021/10/28 01:28:18;;;;;;;7.77;6.97;;;;;;;9.30;84.67;101380.91;5071970;28;20197;-80
2021/10/28 01:30:47;;;;;;;11.00;7.73;;;;;;;9.29;84.69;101378.31;5079993;28;20287;-80
2021/10/28 01:33:13;;;;;;;11.43;7.20;;;;;;;9.26;84.33;101374.00;5076924;28;20204;-80
2021/10/28 01:35:40;;;;;;;9.60;8.10;;;;;;;9.24;84.50;101382.97;5064493;28;20209;-80
2021/10/28 01:38:09;;;;;;;10.23;7.40;;;;;;;9.21;84.72;101378.66;5054742;28;20584;-80
2021/10/28 01:40:36;;;;;;;8.73;6.30;;;;;;;9.19;84.39;101377.00;5070781;28;20719;-79
2021/10/28 01:43:03;;;;;;;9.83;7.83;;;;;;;9.17;84.75;101378.88;5058698;28;20212;-80
2021/10/28 01:45:29;;;;;;;9.03;7.07;;;;;;;9.14;85.00;101377.22;5056678;28;20697;-79
2021/10/28 01:47:56;;;;;;;10.00;7.83;;;;;;;9.12;84.19;101367.63;5068982;28;20204;-78
2021/10/28 01:50:22;;;;;;;10.77;7.67;;;;;;;9.09;84.66;101375.72;5075927;28;20209;-80
2021/10/28 01:52:49;;;;;;;9.30;7.23;;;;;;;9.07;85.13;101361.63;5065369;28;20212;-79
2021/10/28 01:55:17;;;;;;;10.60;7.50;;;;;;;9.04;84.83;101368.81;5058542;28;20231;-79
2021/10/28 01:57:44;;;;;;;9.93;7.93;;;;;;;9.02;84.94;101362.69;5075569;28;20580;-81
2021/10/28 02:00:15;;;;;;;10.90;8.10;;;;;;;9.00;84.69;101361.91;5061043;28;20209;-79
2021/10/28 02:02:42;;;;;;;9.57;7.57;;;;;;;8.98;85.07;101365.56;5075944;28;20209;-80
2021/10/28 02:05:10;;;;;;;8.50;7.20;;;;;;;8.94;84.96;101370.19;5059690;28;20698;-80
2021/10/28 02:07:37;;;;;;;8.87;7.33;;;;;;;8.89;84.53;101371.31;5058689;28;20631;-80
2021/10/28 02:10:05;;;;;;;9.73;7.07;;;;;;;8.82;84.91;101359.22;5075067;28;20201;-80
2021/10/28 02:12:35;;;;;;;9.53;7.23;;;;;;;8.78;85.01;101358.47;5076351;28;20201;-79
2021/10/28 02:15:01;;;;;;;9.57;7.20;;;;;;;8.75;84.74;101355.13;5081126;28;20228;-80
2021/10/28 02:17:28;;;;;;;8.97;7.50;;;;;;;8.72;85.36;101360.56;5072298;28;20209;-79
2021/10/28 02:19:55;;;;;;;11.67;7.80;;;;;;;8.68;84.68;101371.31;5069172;28;20228;-79
2021/10/28 02:22:21;;;;;;;10.17;7.93;;;;;;;8.66;85.12;101367.88;5061496;28;20212;-80
2021/10/28 02:24:48;;;;;;;12.67;8.30;;;;;;;8.64;85.25;101358.25;5074387;28;20237;-81
2021/10/28 02:27:14;;;;;;;9.53;7.87;;;;;;;8.64;85.98;101371.50;5073585;28;20201;-80
2021/10/28 02:29:42;;;;;;;14.13;9.30;;;;;;;8.62;85.47;101360.97;5064904;28;20576;-80
2021/10/28 02:32:09;;;;;;;11.57;7.43;;;;;;;8.62;85.36;101371.56;5069296;28;20208;-80
2021/10/28 02:34:36;;;;;;;9.80;8.43;;;;;;;8.62;86.12;101360.09;5060440;28;20233;-79
2021/10/28 02:37:03;;;;;;;10.50;9.07;;;;;;;8.63;86.36;101364.47;5064474;28;20215;-80
2021/10/28 02:39:29;;;;;;;13.00;8.73;;;;;;;8.62;86.32;101360.97;5069435;28;20233;-79
2021/10/28 02:41:56;;;;;;;11.80;8.73;;;;;;;8.60;85.95;101368.13;5072913;28;20205;-79
2021/10/28 02:44:22;;;;;;;13.63;9.47;;;;;;;8.59;86.38;101365.56;5087383;28;20645;-79
2021/10/28 02:46:50;;;;;;;11.43;9.00;;;;;;;8.58;86.08;101355.88;5073413;28;20224;-80
2021/10/28 02:49:17;;;;;;;14.87;9.63;;;;;;;8.57;86.79;101354.16;5075126;28;20203;-79
2021/10/28 02:51:46;;;;;;;10.73;8.87;;;;;;;8.56;86.74;101350.63;5064302;28;20212;-80
2021/10/28 02:54:13;;;;;;;12.23;9.57;;;;;;;8.54;86.16;101352.47;5067881;28;20240;-80
2021/10/28 02:56:39;;;;;;;17.00;10.33;;;;;;;8.54;86.46;101356.94;5062007;28;20205;-80
2021/10/28 02:59:06;;;;;;;12.63;9.30;;;;;;;8.54;86.64;101354.28;5076644;28;20216;-80
2021/10/28 03:01:32;;;;;;;14.03;10.83;;;;;;;8.54;87.11;101351.63;5074672;28;20220;-80
2021/10/28 03:04:00;;;;;;;14.03;10.50;;;;;;;8.53;86.87;101342.78;5074515;28;20241;-80
2021/10/28 03:06:27;;;;;;;12.27;9.67;;;;;;;8.53;86.99;101347.25;5064931;28;20742;-80
2021/10/28 03:08:53;;;;;;;14.03;9.93;;;;;;;8.52;86.85;101343.72;5054386;28;20592;-80
2021/10/28 03:11:20;;;;;;;11.27;9.40;;;;;;;8.52;87.05;101338.41;5053810;28;20212;-80
2021/10/28 03:13:48;;;;;;;13.27;9.70;;;;;;;8.52;86.64;101337.53;5054515;28;20240;-79
2021/10/28 03:16:20;;;;;;;11.67;10.33;;;;;;;8.50;86.84;101336.75;5073047;28;20209;-80
2021/10/28 03:27:00;;;;;;;13.10;10.17;;;;;;;8.41;87.27;101346.00;5070882;28;20277;-80
2021/10/28 03:29:27;;;;;;;13.53;9.37;;;;;;;8.37;86.96;101346.19;5054037;28;20777;-80
2021/10/28 03:31:54;;;;;;;16.40;11.57;;;;;;;8.35;87.81;101344.44;5063983;28;20651;-79
2021/10/28 03:34:21;;;;;;;12.07;10.20;;;;;;;8.34;86.58;101349.81;5074809;28;20437;-79
2021/10/28 03:36:53;;;;;;;14.10;10.73;;;;;;;8.30;87.39;101349.06;5074377;28;20213;-79
2021/10/28 03:39:36;;;;;;;15.33;11.47;;;;;;;8.27;87.55;101351.84;5073229;28;20217;-79
2021/10/28 03:50:37;;;;;;;11.77;10.00;;;;;;;8.21;87.28;101359.22;5048757;28;20202;-81
2021/10/28 04:21:06;;;;;;;14.10;11.07;;;;;;;8.58;89.27;101339.94;4999050;28;20294;-79
2021/10/28 04:29:04;;;;;;;12.10;10.30;;;;;;;8.59;89.24;101328.41;5069256;28;20328;-80
2021/10/28 04:31:32;;;;;;;14.27;10.57;;;;;;;8.61;89.60;101332.69;5072422;28;20664;-79
2021/10/28 04:34:02;;;;;;;15.33;10.40;;;;;;;8.64;89.70;101329.03;5071517;28;20236;-80
2021/10/28 04:36:30;;;;;;;14.63;10.17;;;;;;;8.64;89.99;101329.03;5073497;28;20430;-80
2021/10/28 04:38:57;;;;;;;12.37;9.70;;;;;;;8.63;90.24;101328.16;5072747;28;20229;-79
2021/10/28 04:41:26;;;;;;;11.67;8.90;;;;;;;8.60;89.76;101333.59;5067351;28;20287;-80
2021/10/28 04:43:53;;;;;;;12.20;9.20;;;;;;;8.57;89.77;101335.56;5060697;28;20224;-79
2021/10/28 04:46:20;;;;;;;15.23;9.13;;;;;;;8.52;90.15;101338.41;5059814;28;20222;-80
2021/10/28 04:48:47;;;;;;;12.87;9.27;;;;;;;8.50;89.82;101329.66;5061357;28;20211;-79
2021/10/28 04:51:14;;;;;;;13.93;9.77;;;;;;;8.48;89.79;101335.94;5077154;28;20219;-79
2021/10/28 04:53:41;;;;;;;16.23;10.20;;;;;;;8.46;90.29;101336.00;5076320;28;20561;-79
2021/10/28 04:56:07;;;;;;;10.40;8.93;;;;;;;8.45;89.56;101336.06;5070770;28;20216;-79
2021/10/28 04:58:35;;;;;;;12.17;9.57;;;;;;;8.42;90.14;101328.28;5069281;28;20228;-79
2021/10/28 05:01:02;;;;;;;13.17;9.13;;;;;;;8.41;90.19;101327.41;5060581;28;20674;-80
2021/10/28 05:03:28;;;;;;;13.30;9.67;;;;;;;8.43;89.97;101327.31;5075917;28;20232;-79
2021/10/28 05:05:55;;;;;;;11.80;9.57;;;;;;;8.45;89.97;101320.16;5073354;28;20213;-81
2021/10/28 05:08:21;;;;;;;16.50;9.73;;;;;;;8.48;90.40;101320.88;5061859;28;20213;-80
2021/10/28 05:10:48;;;;;;;15.43;10.50;;;;;;;8.52;91.10;101318.97;5063329;28;20577;-79
2021/10/28 05:13:15;;;;;;;13.50;10.17;;;;;;;8.53;90.34;101316.25;5076302;28;20215;-79
2021/10/28 05:15:45;;;;;;;11.80;9.70;;;;;;;8.54;90.84;101317.09;5063226;28;20616;-79
2021/10/28 05:18:12;;;;;;;15.10;10.00;;;;;;;8.55;91.21;101322.34;5060989;28;20304;-81
2021/10/28 05:20:39;;;;;;;10.70;8.57;;;;;;;8.55;90.50;101318.84;5060516;28;20759;-79
2021/10/28 05:23:05;;;;;;;13.07;9.70;;;;;;;8.55;90.50;101318.84;5073889;28;20299;-79
2021/10/28 05:25:33;;;;;;;12.60;8.50;;;;;;;8.52;90.39;101319.81;5062366;28;20208;-79
2021/10/28 05:28:00;;;;;;;11.97;9.60;;;;;;;8.50;90.04;101318.16;5070660;28;20228;-79
2021/10/28 05:30:27;;;;;;;11.50;9.20;;;;;;;8.49;90.78;101319.09;5079439;28;20345;-80
2021/10/28 05:32:55;;;;;;;11.90;9.00;;;;;;;8.48;90.31;101314.72;5074284;28;20196;-80
2021/10/28 05:35:22;;;;;;;11.60;9.27;;;;;;;8.48;90.02;101314.72;5069930;28;20714;-79
2021/10/28 05:37:49;;;;;;;10.93;8.73;;;;;;;8.45;90.65;101307.75;5065828;28;20749;-79
2021/10/28 05:40:15;;;;;;;10.53;8.77;;;;;;;8.41;90.13;101313.28;5056700;28;20229;-79
2021/10/28 05:42:47;;;;;;;11.20;9.20;;;;;;;8.37;89.83;101307.22;5062408;28;20220;-79
2021/10/28 05:45:14;;;;;;;12.07;9.93;;;;;;;8.37;90.60;101306.38;5070056;28;20232;-79
2021/10/28 05:47:41;;;;;;;11.77;8.73;;;;;;;8.36;90.66;101302.84;5063178;28;20215;-80
2021/10/28 05:50:13;;;;;;;13.00;9.87;;;;;;;8.37;89.97;101298.41;5076000;28;20208;-80
2021/10/28 05:52:40;;;;;;;17.50;10.63;;;;;;;8.39;90.99;101296.56;5075775;28;20208;-80
2021/10/28 05:55:07;;;;;;;13.80;10.37;;;;;;;8.41;90.52;101298.22;5065562;28;20216;-79
2021/10/28 05:57:34;;;;;;;12.10;9.30;;;;;;;8.43;90.85;101303.44;5071190;28;20205;-80
2021/10/28 06:00:01;;;;;;;14.43;10.07;;;;;;;8.45;90.55;101304.22;5068405;28;20227;-80
2021/10/28 06:02:27;;;;;;;12.17;9.30;;;;;;;8.48;90.71;101304.97;5074981;28;20636;-79
2021/10/28 06:04:54;;;;;;;13.70;9.13;;;;;;;8.53;91.22;101302.09;5076530;28;20225;-78
2021/10/28 06:07:22;;;;;;;14.67;9.80;;;;;;;8.58;90.74;101294.81;5075441;28;20208;-80
2021/10/28 06:09:48;;;;;;;14.87;9.23;;;;;;;8.61;90.94;101292.00;5076130;28;20204;-79
2021/10/28 06:12:16;;;;;;;13.30;9.53;;;;;;;8.63;91.47;101292.78;5075296;28;20581;-79
2021/10/28 06:14:42;;;;;;;10.33;8.57;;;;;;;8.67;91.38;101289.06;5064895;28;20316;-79
2021/10/28 06:17:11;;;;;;;12.13;9.07;;;;;;;8.67;91.29;101295.25;5068269;28;20211;-78
2021/10/28 06:19:38;;;;;;;13.03;9.73;;;;;;;8.69;90.98;101296.03;5063619;28;20644;-80
2021/10/28 06:22:06;;;;;;;11.57;8.67;;;;;;;8.71;91.39;101295.97;5074716;28;20208;-78
2021/10/28 06:24:34;;;;;;;14.20;8.93;;;;;;;8.73;90.64;101295.91;5063615;28;20243;-79
2021/10/28 06:27:01;;;;;;;13.40;8.70;;;;;;;8.75;90.68;101297.56;5072362;28;20211;-79
2021/10/28 06:29:27;;;;;;;12.27;8.50;;;;;;;8.77;90.81;101297.50;5071877;28;20737;-79
2021/10/28 06:31:54;;;;;;;13.23;8.90;;;;;;;8.79;90.58;101296.47;5075271;28;20208;-78
2021/10/28 06:34:21;;;;;;;13.47;9.13;;;;;;;8.81;91.38;101296.41;5075111;28;20264;-80
2021/10/28 06:36:49;;;;;;;12.27;7.73;;;;;;;8.84;91.26;101297.13;5076345;28;20205;-79
2021/10/28 06:39:16;;;;;;;10.43;7.87;;;;;;;8.88;90.99;101289.88;5075166;28;20298;-80
2021/10/28 06:41:45;;;;;;;12.33;8.60;;;;;;;8.90;91.30;101294.19;5067369;28;20205;-80
2021/10/28 06:44:12;;;;;;;10.63;7.67;;;;;;;8.93;90.79;101291.41;5054266;28;20699;-80
2021/10/28 06:46:38;;;;;;;11.10;8.70;;;;;;;8.95;90.85;101291.34;5061207;28;20209;-79
2021/10/28 06:49:06;;;;;;;10.57;8.00;;;;;;;8.98;90.90;101296.47;5073105;28;20220;-79
2021/10/28 06:51:37;;;;;;;10.50;8.27;;;;;;;8.99;91.08;101291.09;5068350;28;20265;-78
2021/10/28 06:54:07;;;;;;;12.17;8.53;;;;;;;9.00;90.43;101291.97;5063632;28;20294;-79
2021/10/28 07:02:29;;;;;;;11.73;8.27;;;;;;;8.97;90.35;101281.47;5074700;28;20211;-79
2021/10/28 07:04:57;;;;;;;9.73;7.80;;;;;;;9.00;90.60;101279.53;5071836;28;20315;-80
2021/10/28 07:07:25;;;;;;;10.37;8.43;;;;;;;9.02;90.84;101284.78;5060205;28;20209;-80
2021/10/28 07:09:58;;;;;;;11.83;8.40;;;;;;;9.04;90.75;101288.25;5072855;28;20204;-79
2021/10/28 07:12:35;;;;;;;9.23;7.80;;;;;;;9.07;90.11;101287.25;5058657;28;20270;-79
2021/10/28 07:15:06;;;;;;;10.47;7.97;;;;;;;9.11;90.75;101283.50;5056767;28;20707;-79
2021/10/28 07:17:37;;;;;;;10.50;7.83;;;;;;;9.15;90.94;101288.59;5069359;28;20250;-79
2021/10/28 07:20:19;;;;;;;12.07;7.77;;;;;;;9.18;90.50;101282.25;5061820;28;20217;-79
2021/10/28 07:23:02;;;;;;;11.87;7.93;;;;;;;9.20;91.01;101283.06;5067485;28;20212;-79
2021/10/28 07:25:40;;;;;;;10.90;8.10;;;;;;;9.22;90.74;101282.06;5057770;28;20568;-79
2021/10/28 07:28:19;;;;;;;9.47;7.63;;;;;;;9.25;90.70;101281.91;5060448;28;20625;-79
2021/10/28 07:31:05;;;;;;;9.27;7.40;;;;;;;9.27;90.18;101282.72;5059341;28;20232;-80
2021/10/28 07:33:49;;;;;;;9.93;7.80;;;;;;;9.32;89.99;101279.81;5061965;28;20233;-79
2021/10/28 07:36:34;;;;;;;10.70;7.60;;;;;;;9.35;90.75;101283.19;5054089;28;20568;-80
2021/10/28 07:58:36;;;;;;;9.73;6.77;;;;;;;9.95;90.03;101269.59;5068404;28;20213;-78
2021/10/28 08:15:06;;;;;;;8.33;6.50;;;;;;;10.64;88.86;101250.88;5076642;28;20227;-80
2021/10/28 08:17:54;;;;;;;7.40;6.23;;;;;;;10.78;88.55;101251.00;5073076;28;20210;-80
2021/10/28 08:20:39;;;;;;;8.03;6.60;;;;;;;10.89;88.12;101251.28;5072245;28;20224;-80
2021/10/28 08:23:11;;;;;;;6.90;5.47;;;;;;;11.02;87.76;101246.13;5063095;28;20207;-80
2021/10/28 08:28:43;;;;;;;7.87;5.67;;;;;;;11.27;86.79;101245.63;5074570;28;20281;-80
2021/10/28 08:31:10;;;;;;;6.63;5.23;;;;;;;11.41;86.31;101248.34;5070538;28;20200;-79
2021/10/28 08:33:36;;;;;;;7.63;5.50;;;;;;;11.53;85.52;101247.63;5061815;28;20230;-80
2021/10/28 08:36:09;;;;;;;6.47;5.70;;;;;;;11.63;84.76;101246.19;5069499;28;20221;-80
2021/10/28 08:38:36;;;;;;;6.57;5.70;;;;;;;11.75;84.07;101233.91;5060919;28;20216;-79
2021/10/28 08:41:05;;;;;;;6.27;5.27;;;;;;;11.88;83.31;101226.06;5059185;28;20260;-79
2021/10/28 08:43:35;;;;;;;5.73;5.13;;;;;;;11.97;82.64;101220.19;5059294;28;20693;-80
2021/10/28 08:46:03;;;;;;;6.40;5.37;;;;;;;12.08;81.80;101217.72;5062211;28;20247;-80
2021/10/28 08:48:33;;;;;;;7.90;6.03;;;;;;;12.18;81.26;101210.03;5069784;28;20718;-80
2021/10/28 08:51:09;;;;;;;6.17;5.10;;;;;;;12.29;80.50;101211.09;5070775;28;20681;-81
2021/10/28 08:54:03;;;;;;;7.37;5.43;;;;;;;12.39;79.71;101203.34;5067910;28;20725;-81
2021/10/28 08:56:47;;;;;;;7.23;5.30;;;;;;;12.49;78.91;101213.38;5071767;28;20232;-80
2021/10/28 08:59:30;;;;;;;5.83;4.90;;;;;;;12.60;78.68;101220.72;5065266;28;20607;-80
2021/10/28 09:24:33;;;;;;;7.00;4.43;;;;;;;13.61;72.97;101198.16;5069106;28;20236;-80
2021/10/28 09:27:06;;;;;;;5.53;4.37;;;;;;;13.69;72.10;101199.31;5056999;28;20205;-79
2021/10/28 09:29:41;;;;;;;6.37;4.37;;;;;;;13.78;71.95;101195.19;5073462;28;20324;-79
2021/10/28 09:32:18;;;;;;;6.37;5.00;;;;;;;13.83;70.71;101199.25;5073120;28;20581;-79
2021/10/28 09:35:06;;;;;;;6.67;4.57;;;;;;;13.92;70.88;101202.28;5074261;28;20278;-79
2021/10/28 09:43:35;;;;;;;6.03;4.50;;;;;;;14.14;69.78;101186.44;5059171;28;20353;-81
2021/10/28 09:51:57;;;;;;;6.00;4.50;;;;;;;14.22;68.27;101197.47;5060911;28;20288;-80
2021/10/28 09:54:33;;;;;;;8.00;5.60;;;;;;;14.25;68.60;101178.50;5073888;28;20232;-79
2021/10/28 09:59:52;;;;;;;7.53;4.80;;;;;;;14.31;67.33;101185.25;5064937;28;20204;-80
2021/10/28 10:02:22;;;;;;;5.67;4.43;;;;;;;14.29;66.55;101182.69;5061380;28;20198;-80
2021/10/28 10:04:50;;;;;;;8.03;4.57;;;;;;;14.36;67.09;101186.63;5060809;28;20220;-79
2021/10/28 10:07:19;;;;;;;4.40;3.23;;;;;;;14.44;67.46;101181.63;5068396;28;20231;-80
2021/10/28 10:09:47;;;;;;;5.23;4.40;;;;;;;14.53;66.95;101177.41;5061245;28;20802;-79
2021/10/28 10:12:16;;;;;;;5.47;4.57;;;;;;;14.62;66.83;101173.25;5061865;28;20671;-79
2021/10/28 10:14:43;;;;;;;5.97;5.00;;;;;;;14.69;66.83;101177.22;5066523;28;20221;-81
2021/10/28 10:17:12;;;;;;;5.80;4.50;;;;;;;14.74;66.49;101165.16;5064934;28;20199;-79
2021/10/28 10:19:41;;;;;;;4.93;3.40;;;;;;;14.81;66.17;101168.25;5066942;28;20205;-81
2021/10/28 10:22:20;;;;;;;5.97;3.30;;;;;;;14.84;65.22;101160.00;5065721;28;20197;-79
2021/10/28 10:25:04;;;;;;;3.87;3.07;;;;;;;14.88;64.50;101164.16;5070436;28;20599;-80
2021/10/28 10:28:06;;;;;;;3.80;2.77;;;;;;;14.91;63.78;101159.41;5066412;28;20623;-80
2021/10/28 11:21:57;;;;;;;2.57;1.93;;;;;;;15.72;60.43;101104.19;5068847;28;20274;-80
2021/10/28 11:27:47;;;;;;;2.73;2.00;;;;;;;15.76;60.24;101093.09;5062269;28;20199;-81
2021/10/28 11:30:56;;;;;;;3.30;1.73;;;;;;;15.77;60.25;101088.53;5062682;28;21092;-80
2021/10/28 12:23:58;;;;;;;4.30;1.87;;;;;;;16.17;57.18;101013.69;5065135;28;20276;-80
2021/10/28 12:46:13;;;;;;;1.40;1.30;;;;;;;16.27;56.23;100990.50;5066520;28;20770;-80
2021/10/28 12:49:25;;;;;;;2.10;1.37;;;;;;;16.30;56.05;100985.69;5065870;28;20218;-80
2021/10/28 12:52:28;;;;;;;2.10;1.70;;;;;;;16.31;55.86;100981.16;5067754;28;20215;-80
2021/10/28 13:50:37;;;;;;;2.13;1.63;;;;;;;16.20;56.67;100914.88;5065028;28;20256;-80
2021/10/28 13:58:57;;;;;;;3.90;2.00;;;;;;;16.16;56.77;100902.66;5059258;28;20214;-79
2021/10/28 14:29:52;;;;;;;2.30;1.83;;;;;;;15.95;57.86;100880.25;5062500;28;20240;-84
2021/10/28 14:38:27;;;;;;;2.77;1.70;;;;;;;15.88;58.57;100871.88;5075463;28;21981;-69
2021/10/28 15:03:02;;;;;;;5.17;1.73;;;;;;;15.57;59.32;100859.22;5041435;28;20204;-85
2021/10/28 15:27:55;;;;;;;3.50;2.40;;;;;;;15.17;60.17;100824.81;5051738;28;20217;-85
2021/10/28 15:30:29;;;;;;;2.87;2.17;;;;;;;15.11;60.44;100822.63;5051392;28;20304;-84
2021/10/28 15:35:47;;;;;;;3.33;2.57;;;;;;;14.99;60.59;100820.91;5044217;28;20194;-84
2021/10/28 15:38:24;;;;;;;3.77;2.70;;;;;;;14.95;60.78;100814.09;5056946;28;20645;-85
2021/10/28 15:55:12;;;;;;;3.70;2.73;;;;;;;14.62;61.68;100797.97;5039845;28;20716;-85
2021/10/28 16:00:38;;;;;;;3.17;2.80;;;;;;;14.47;62.04;100792.81;5045715;22;20237;-71
2021/10/28 16:22:15;;;;;;;2.73;2.20;;;;;;;13.72;63.31;100781.56;5011909;28;20210;-70
2021/10/28 16:24:41;;;;;;;7.53;2.27;;;;;;;13.64;63.23;100781.25;5012547;28;20241;-71
2021/10/28 16:27:08;;;;;;;5.47;1.90;;;;;;;13.54;63.40;100796.28;5022688;28;20667;-70
2021/10/28 16:29:34;;;;;;;4.13;2.40;;;;;;;13.44;63.61;100784.53;5029341;28;20217;-70
2021/10/28 16:32:03;;;;;;;3.47;2.20;;;;;;;13.35;63.91;100785.22;5019944;28;20664;-69
2021/10/28 16:34:29;;;;;;;2.57;2.17;;;;;;;13.27;63.93;100782.22;5015939;28;20226;-68
2021/10/28 16:36:57;;;;;;;2.27;1.77;;;;;;;13.18;63.92;100773.94;5030549;28;20238;-70
2021/10/28 16:39:24;;;;;;;4.67;1.97;;;;;;;13.09;63.90;100777.22;5027803;28;20221;-69
2021/10/28 16:41:53;;;;;;;3.13;1.90;;;;;;;12.96;64.08;100780.88;5025326;28;20597;-71
2021/10/28 16:44:20;;;;;;;5.03;3.23;;;;;;;12.81;64.25;100770.31;5021350;28;20600;-69
2021/10/28 16:46:48;;;;;;;3.20;2.80;;;;;;;12.68;64.62;100774.81;5030607;28;20216;-71
2021/10/28 16:49:16;;;;;;;3.77;2.30;;;;;;;12.61;64.89;100775.34;5024375;28;20229;-69
2021/10/28 16:51:44;;;;;;;3.33;2.00;;;;;;;12.52;65.56;100764.34;5022114;28;20227;-71
2021/10/28 16:54:11;;;;;;;3.67;2.40;;;;;;;12.47;65.62;100770.97;5023495;28;20230;-68
2021/10/28 16:56:38;;;;;;;3.30;2.17;;;;;;;12.41;65.95;100760.69;5021676;28;20644;-70
2021/10/28 16:59:05;;;;;;;2.73;2.40;;;;;;;12.36;66.31;100770.88;5018332;28;20212;-69
2021/10/28 17:01:32;;;;;;;2.90;2.57;;;;;;;12.31;66.35;100764.97;5028858;28;20210;-71
2021/10/28 17:03:58;;;;;;;3.30;2.90;;;;;;;12.27;66.65;100766.13;5026197;28;20213;-69
2021/10/28 17:06:26;;;;;;;5.27;2.90;;;;;;;12.23;67.12;100769.97;5030347;28;20209;-69
2021/10/28 17:08:56;;;;;;;4.53;2.63;;;;;;;12.17;67.21;100765.94;5024423;28;20598;-68
2021/10/28 17:11:23;;;;;;;2.47;2.27;;;;;;;12.08;66.83;100769.22;5023931;28;20234;-70
2021/10/28 17:13:50;;;;;;;3.97;2.80;;;;;;;11.95;66.46;100763.84;5025135;28;20280;-68
2021/10/28 17:16:17;;;;;;;3.77;2.47;;;;;;;11.83;66.48;100764.66;5024829;28;20261;-71
2021/10/28 17:18:43;;;;;;;4.50;3.10;;;;;;;11.71;66.72;100760.09;5011836;28;20210;-70
2021/10/28 17:21:10;;;;;;;4.03;2.40;;;;;;;11.62;67.07;100755.41;5013432;28;20578;-70
2021/10/28 17:23:40;;;;;;;2.20;2.00;;;;;;;11.52;67.51;100757.78;5031406;28;20224;-69
2021/10/28 17:26:07;;;;;;;4.53;2.47;;;;;;;11.44;67.72;100762.78;5031167;28;20620;-69
2021/10/28 17:28:35;;;;;;;4.33;3.27;;;;;;;11.38;68.03;100763.19;5017415;28;20217;-71
2021/10/28 17:31:03;;;;;;;6.20;4.20;;;;;;;11.34;68.16;100764.31;5020830;28;20217;-69
2021/10/28 17:33:29;;;;;;;7.13;4.23;;;;;;;11.29;68.93;100763.75;5028834;28;20705;-69
2021/10/28 17:35:57;;;;;;;8.73;5.63;;;;;;;11.25;69.02;100768.47;5025206;28;20227;-70
2021/10/28 17:38:25;;;;;;;4.43;3.90;;;;;;;11.26;69.83;100763.97;5024604;28;20229;-70
2021/10/28 17:40:54;;;;;;;3.77;2.77;;;;;;;11.23;69.31;100758.84;5026486;28;20206;-69
2021/10/28 17:43:21;;;;;;;4.73;3.30;;;;;;;11.06;68.95;100760.78;5028919;28;20209;-70
2021/10/28 17:45:51;;;;;;;3.87;3.47;;;;;;;10.92;69.25;100765.28;5028811;28;20601;-70
2021/10/28 17:48:18;;;;;;;3.17;2.87;;;;;;;10.81;69.99;100768.59;5028677;28;20731;-69
2021/10/28 17:50:45;;;;;;;4.40;3.97;;;;;;;10.76;70.38;100776.84;5013041;28;20210;-69
2021/10/28 17:53:11;;;;;;;7.73;5.20;;;;;;;10.76;71.13;100773.34;5016985;28;20218;-71
2021/10/28 17:55:38;;;;;;;10.83;7.43;;;;;;;10.76;71.59;100770.66;5018717;28;20237;-70
2021/10/28 17:58:06;;;;;;;10.30;7.10;;;;;;;10.76;71.87;100774.19;5013726;28;20232;-69
2021/10/28 18:00:33;;;;;;;9.80;6.70;;;;;;;10.79;72.06;100782.00;5021339;28;20217;-69
2021/10/28 18:03:00;;;;;;;9.53;6.27;;;;;;;10.80;72.03;100780.19;5014232;28;20217;-70
2021/10/28 18:05:27;;;;;;;8.37;6.30;;;;;;;10.80;72.06;100777.53;5030359;28;20708;-69
2021/10/28 18:07:53;;;;;;;9.03;5.90;;;;;;;10.81;72.17;100768.59;5029850;28;20217;-69
2021/10/28 18:10:20;;;;;;;8.07;5.77;;;;;;;10.82;72.26;100778.28;5027896;28;20206;-69
2021/10/28 18:12:46;;;;;;;5.87;5.20;;;;;;;10.81;72.15;100776.56;5036766;28;20271;-71
2021/10/28 18:15:14;;;;;;;10.20;7.07;;;;;;;10.79;72.59;100767.81;5026616;28;20233;-70
2021/10/28 18:17:41;;;;;;;8.90;5.93;;;;;;;10.79;72.49;100768.69;5028392;28;20721;-69
2021/10/28 18:20:09;;;;;;;5.80;4.87;;;;;;;10.82;72.70;100767.63;5027339;28;20277;-70
2021/10/28 18:22:38;;;;;;;6.17;4.37;;;;;;;10.83;72.55;100765.84;5019783;28;20217;-69
2021/10/28 18:25:06;;;;;;;6.27;4.40;;;;;;;10.84;72.55;100763.06;5029642;28;20226;-69
2021/10/28 18:27:32;;;;;;;12.60;4.43;;;;;;;10.88;72.49;100761.94;5012438;28;20289;-69
2021/10/28 18:30:00;;;;;;;5.47;3.70;;;;;;;10.92;72.46;100763.47;5010540;28;20288;-69
2021/10/28 18:32:28;;;;;;;4.20;3.73;;;;;;;10.97;72.16;100761.34;5011318;28;20290;-70
2021/10/28 18:34:55;;;;;;;4.43;3.77;;;;;;;10.99;71.98;100748.78;5018417;28;20230;-69
2021/10/28 18:37:22;;;;;;;5.43;3.90;;;;;;;11.06;71.60;100746.59;5018701;28;20762;-69
2021/10/28 18:39:50;;;;;;;8.60;4.80;;;;;;;11.11;71.38;100753.31;5022447;28;20222;-69
2021/10/28 18:42:17;;;;;;;7.70;4.70;;;;;;;11.16;71.06;100745.03;5024281;28;20198;-69
2021/10/28 18:44:43;;;;;;;9.17;5.90;;;;;;;11.21;70.78;100744.75;5016418;28;20223;-70
2021/10/28 18:47:10;;;;;;;8.83;5.73;;;;;;;11.24;70.48;100737.41;5019507;28;20195;-69
2021/10/28 18:49:38;;;;;;;5.87;5.00;;;;;;;11.27;70.38;100739.03;5016623;28;20208;-69
2021/10/28 18:52:05;;;;;;;4.80;4.27;;;;;;;11.30;70.11;100742.31;5020086;28;20698;-70
2021/10/28 18:54:31;;;;;;;4.40;4.00;;;;;;;11.32;69.89;100737.75;5015839;28;20243;-68
2021/10/28 18:56:58;;;;;;;5.30;4.40;;;;;;;11.34;69.59;100741.19;5017305;28;20726;-70
2021/10/28 18:59:26;;;;;;;6.20;4.43;;;;;;;11.35;69.94;100742.03;5017414;28;20224;-69
2021/10/28 19:01:55;;;;;;;6.80;4.97;;;;;;;11.37;69.65;100743.66;5026307;28;20249;-70
2021/10/28 19:04:22;;;;;;;6.93;5.43;;;;;;;11.37;69.50;100734.78;5027854;28;20515;-70